sensor_id;sensor_type;location;lat;lon;timestamp;pressure;altitude;pressure_sealevel;temperature;humidity
33265;BME280;31404;53.974;-1.086;2023-02-17T00:00:37;101178.20;;;6.30;100.00
33265;BME280;31404;53.974;-1.086;2023-02-17T00:05:38;101174.74;;;6.27;100.00
33265;BME280;31404;53.974;-1.086;2023-02-17T00:10:36;101197.13;;;6.06;100.00
33265;BME280;31404;53.974;-1.086;2023-02-17T00:15:37;101211.36;;;6.49;100.00
33265;BME280;31404;53.974;-1.086;2023-02-17T00:20:43;101216.04;;;7.71;100.00
33265;BME280;31404;53.974;-1.086;2023-02-17T00:25:37;101211.67;;;7.52;100.00
33265;BME280;31404;53.974;-1.086;2023-02-17T00:30:38;101234.56;;;7.77;100.00
33265;BME280;31404;53.974;-1.086;2023-02-17T00:35:39;101238.94;;;9.08;100.00
33265;BME280;31404;53.974;-1.086;2023-02-17T00:40:36;101243.40;;;9.31;100.00
33265;BME280;31404;53.974;-1.086;2023-02-17T00:45:37;101233.09;;;10.08;100.00
33265;BME280;31404;53.974;-1.086;2023-02-17T00:50:29;101220.88;;;9.45;100.00
33265;BME280;31404;53.974;-1.086;2023-02-17T00:55:36;101214.35;;;9.96;100.00
33265;BME280;31404;53.974;-1.086;2023-02-17T01:00:36;101208.19;;;9.91;100.00
33265;BME280;31404;53.974;-1.086;2023-02-17T01:05:40;101179.85;;;9.22;100.00
33265;BME280;31404;53.974;-1.086;2023-02-17T01:10:37;101184.41;;;8.79;100.00
33265;BME280;31404;53.974;-1.086;2023-02-17T01:15:37;101147.23;;;9.26;100.00
33265;BME280;31404;53.974;-1.086;2023-02-17T01:20:39;101155.37;;;8.16;100.00
33265;BME280;31404;53.974;-1.086;2023-02-17T01:25:37;101161.99;;;9.50;100.00
33265;BME280;31404;53.974;-1.086;2023-02-17T01:30:37;101161.45;;;8.82;100.00
33265;BME280;31404;53.974;-1.086;2023-02-17T01:35:38;101137.64;;;9.36;100.00
33265;BME280;31404;53.974;-1.086;2023-02-17T01:50:39;101118.36;;;8.51;100.00
33265;BME280;31404;53.974;-1.086;2023-02-17T01:55:38;101104.96;;;7.88;100.00
33265;BME280;31404;53.974;-1.086;2023-02-17T02:00:37;101093.60;;;7.29;100.00
33265;BME280;31404;53.974;-1.086;2023-02-17T02:05:35;101104.07;;;7.21;100.00
33265;BME280;31404;53.974;-1.086;2023-02-17T02:10:38;101092.52;;;7.05;100.00
33265;BME280;31404;53.974;-1.086;2023-02-17T02:40:39;101085.69;;;7.89;100.00
33265;BME280;31404;53.974;-1.086;2023-02-17T02:45:36;101098.11;;;8.28;100.00
33265;BME280;31404;53.974;-1.086;2023-02-17T03:05:39;101097.50;;;9.17;100.00
33265;BME280;31404;53.974;-1.086;2023-02-17T03:15:36;101055.92;;;9.63;100.00
33265;BME280;31404;53.974;-1.086;2023-02-17T03:20:38;101053.52;;;9.93;100.00
33265;BME280;31404;53.974;-1.086;2023-02-17T03:25:36;101050.45;;;8.60;100.00
33265;BME280;31404;53.974;-1.086;2023-02-17T03:30:35;101036.17;;;8.70;100.00
33265;BME280;31404;53.974;-1.086;2023-02-17T03:35:37;101000.97;;;8.46;100.00
33265;BME280;31404;53.974;-1.086;2023-02-17T03:40:37;100975.06;;;8.67;100.00
33265;BME280;31404;53.974;-1.086;2023-02-17T03:45:37;100976.12;;;8.41;100.00
33265;BME280;31404;53.974;-1.086;2023-02-17T03:50:35;100973.39;;;8.09;100.00
33265;BME280;31404;53.974;-1.086;2023-02-17T03:55:37;100999.19;;;8.02;100.00
33265;BME280;31404;53.974;-1.086;2023-02-17T04:00:36;101002.68;;;7.44;100.00
33265;BME280;31404;53.974;-1.086;2023-02-17T04:05:37;100976.54;;;7.29;100.00
33265;BME280;31404;53.974;-1.086;2023-02-17T04:10:36;100959.57;;;8.16;100.00
33265;BME280;31404;53.974;-1.086;2023-02-17T04:15:36;100940.89;;;7.54;100.00
33265;BME280;31404;53.974;-1.086;2023-02-17T04:20:35;100925.51;;;8.34;100.00
33265;BME280;31404;53.974;-1.086;2023-02-17T04:25:37;100926.26;;;8.07;100.00
33265;BME280;31404;53.974;-1.086;2023-02-17T04:30:37;100914.87;;;8.49;100.00
33265;BME280;31404;53.974;-1.086;2023-02-17T04:35:37;100906.68;;;8.21;100.00
33265;BME280;31404;53.974;-1.086;2023-02-17T04:40:37;100917.01;;;7.69;100.00
33265;BME280;31404;53.974;-1.086;2023-02-17T04:45:36;100920.64;;;8.39;100.00
33265;BME280;31404;53.974;-1.086;2023-02-17T04:50:36;100928.67;;;8.95;100.00
33265;BME280;31404;53.974;-1.086;2023-02-17T04:55:35;100913.82;;;8.76;100.00
33265;BME280;31404;53.974;-1.086;2023-02-17T05:00:35;100913.33;;;8.62;100.00
33265;BME280;31404;53.974;-1.086;2023-02-17T05:05:36;100911.97;;;8.77;100.00
33265;BME280;31404;53.974;-1.086;2023-02-17T05:10:34;100936.37;;;8.38;100.00
33265;BME280;31404;53.974;-1.086;2023-02-17T05:15:35;100949.64;;;7.85;100.00
33265;BME280;31404;53.974;-1.086;2023-02-17T05:20:35;100938.71;;;7.77;100.00
33265;BME280;31404;53.974;-1.086;2023-02-17T05:25:37;100945.59;;;8.53;100.00
33265;BME280;31404;53.974;-1.086;2023-02-17T05:30:35;100942.12;;;8.02;100.00
33265;BME280;31404;53.974;-1.086;2023-02-17T05:35:35;100934.08;;;8.04;100.00
33265;BME280;31404;53.974;-1.086;2023-02-17T05:40:36;100938.81;;;8.48;100.00
33265;BME280;31404;53.974;-1.086;2023-02-17T05:45:37;100940.12;;;8.36;100.00
33265;BME280;31404;53.974;-1.086;2023-02-17T05:50:35;100936.60;;;8.23;100.00
33265;BME280;31404;53.974;-1.086;2023-02-17T05:55:35;100959.52;;;8.20;100.00
33265;BME280;31404;53.974;-1.086;2023-02-17T06:00:35;100967.16;;;7.93;100.00
33265;BME280;31404;53.974;-1.086;2023-02-17T06:05:38;100958.48;;;8.62;100.00
33265;BME280;31404;53.974;-1.086;2023-02-17T06:10:37;100992.90;;;7.71;100.00
33265;BME280;31404;53.974;-1.086;2023-02-17T06:15:35;100976.22;;;8.27;100.00
33265;BME280;31404;53.974;-1.086;2023-02-17T06:20:29;100969.74;;;8.88;100.00
33265;BME280;31404;53.974;-1.086;2023-02-17T06:25:41;100957.50;;;9.19;100.00
33265;BME280;31404;53.974;-1.086;2023-02-17T06:30:34;100976.46;;;8.38;100.00
33265;BME280;31404;53.974;-1.086;2023-02-17T06:35:36;100970.96;;;9.06;100.00
33265;BME280;31404;53.974;-1.086;2023-02-17T06:40:35;100960.98;;;8.08;100.00
33265;BME280;31404;53.974;-1.086;2023-02-17T06:45:36;100973.18;;;8.42;100.00
33265;BME280;31404;53.974;-1.086;2023-02-17T06:50:36;100967.80;;;8.33;100.00
33265;BME280;31404;53.974;-1.086;2023-02-17T06:55:36;100928.64;;;8.59;100.00
33265;BME280;31404;53.974;-1.086;2023-02-17T07:00:35;100946.83;;;8.37;100.00
33265;BME280;31404;53.974;-1.086;2023-02-17T07:05:36;100942.38;;;7.77;100.00
33265;BME280;31404;53.974;-1.086;2023-02-17T07:10:36;100956.38;;;7.85;100.00
33265;BME280;31404;53.974;-1.086;2023-02-17T07:15:35;100962.94;;;8.17;100.00
33265;BME280;31404;53.974;-1.086;2023-02-17T07:20:37;100961.74;;;7.97;100.00
33265;BME280;31404;53.974;-1.086;2023-02-17T07:25:36;100969.49;;;8.62;100.00
33265;BME280;31404;53.974;-1.086;2023-02-17T07:30:36;100977.86;;;8.18;100.00
33265;BME280;31404;53.974;-1.086;2023-02-17T07:40:37;100974.81;;;9.30;100.00
33265;BME280;31404;53.974;-1.086;2023-02-17T07:45:36;101022.96;;;8.12;100.00
33265;BME280;31404;53.974;-1.086;2023-02-17T07:50:36;101010.26;;;8.37;100.00
33265;BME280;31404;53.974;-1.086;2023-02-17T07:55:36;101011.54;;;8.19;100.00
33265;BME280;31404;53.974;-1.086;2023-02-17T08:00:36;101039.32;;;8.79;100.00
33265;BME280;31404;53.974;-1.086;2023-02-17T08:05:38;101055.44;;;8.92;100.00
33265;BME280;31404;53.974;-1.086;2023-02-17T08:10:37;101041.37;;;9.17;100.00
33265;BME280;31404;53.974;-1.086;2023-02-17T08:15:36;101085.97;;;8.41;100.00
33265;BME280;31404;53.974;-1.086;2023-02-17T08:20:36;101074.49;;;8.39;100.00
33265;BME280;31404;53.974;-1.086;2023-02-17T08:25:37;101077.42;;;10.05;100.00
33265;BME280;31404;53.974;-1.086;2023-02-17T08:30:36;101074.59;;;9.54;100.00
33265;BME280;31404;53.974;-1.086;2023-02-17T08:35:35;101081.71;;;8.64;100.00
33265;BME280;31404;53.974;-1.086;2023-02-17T08:40:36;101097.13;;;7.77;100.00
33265;BME280;31404;53.974;-1.086;2023-02-17T08:45:36;101113.05;;;7.48;100.00
33265;BME280;31404;53.974;-1.086;2023-02-17T08:50:37;101116.54;;;7.61;100.00
33265;BME280;31404;53.974;-1.086;2023-02-17T08:55:35;101132.37;;;8.22;100.00
33265;BME280;31404;53.974;-1.086;2023-02-17T09:00:35;101087.20;;;8.21;100.00
33265;BME280;31404;53.974;-1.086;2023-02-17T09:05:35;101092.00;;;7.57;100.00
33265;BME280;31404;53.974;-1.086;2023-02-17T09:10:34;101077.70;;;7.98;100.00
33265;BME280;31404;53.974;-1.086;2023-02-17T09:15:34;101074.21;;;7.74;100.00
33265;BME280;31404;53.974;-1.086;2023-02-17T09:20:36;101045.04;;;7.71;100.00
33265;BME280;31404;53.974;-1.086;2023-02-17T09:25:35;101058.84;;;7.07;100.00
33265;BME280;31404;53.974;-1.086;2023-02-17T09:30:35;101048.20;;;6.96;100.00
33265;BME280;31404;53.974;-1.086;2023-02-17T09:35:36;101041.23;;;6.91;100.00
33265;BME280;31404;53.974;-1.086;2023-02-17T09:40:40;101049.47;;;7.08;100.00
33265;BME280;31404;53.974;-1.086;2023-02-17T09:45:37;101033.75;;;7.14;100.00
33265;BME280;31404;53.974;-1.086;2023-02-17T09:55:40;101012.99;;;6.88;100.00
33265;BME280;31404;53.974;-1.086;2023-02-17T10:05:39;101029.85;;;7.14;100.00
33265;BME280;31404;53.974;-1.086;2023-02-17T10:15:41;101078.08;;;7.35;100.00
33265;BME280;31404;53.974;-1.086;2023-02-17T10:20:40;101113.15;;;6.92;100.00
33265;BME280;31404;53.974;-1.086;2023-02-17T10:40:37;101268.32;;;7.16;100.00
33265;BME280;31404;53.974;-1.086;2023-02-17T10:50:37;101333.13;;;7.53;100.00
33265;BME280;31404;53.974;-1.086;2023-02-17T11:00:36;101324.31;;;7.15;100.00
33265;BME280;31404;53.974;-1.086;2023-02-17T11:05:35;101345.01;;;6.73;100.00
33265;BME280;31404;53.974;-1.086;2023-02-17T11:10:37;101369.96;;;7.37;100.00
33265;BME280;31404;53.974;-1.086;2023-02-17T11:20:36;101417.98;;;7.91;100.00
33265;BME280;31404;53.974;-1.086;2023-02-17T11:25:35;101414.12;;;7.91;100.00
33265;BME280;31404;53.974;-1.086;2023-02-17T11:30:34;101427.73;;;7.47;100.00
33265;BME280;31404;53.974;-1.086;2023-02-17T11:40:36;101455.33;;;7.82;100.00
33265;BME280;31404;53.974;-1.086;2023-02-17T12:20:42;101553.82;;;7.20;86.89
33265;BME280;31404;53.974;-1.086;2023-02-17T12:40:37;101571.61;;;7.72;75.43
33265;BME280;31404;53.974;-1.086;2023-02-17T12:45:39;101572.70;;;7.88;70.41
33265;BME280;31404;53.974;-1.086;2023-02-17T12:55:39;101589.28;;;8.39;69.12
33265;BME280;31404;53.974;-1.086;2023-02-17T13:00:40;101595.24;;;8.38;70.94
33265;BME280;31404;53.974;-1.086;2023-02-17T13:05:38;101589.70;;;7.94;68.67
33265;BME280;31404;53.974;-1.086;2023-02-17T13:10:37;101593.43;;;7.69;66.63
33265;BME280;31404;53.974;-1.086;2023-02-17T13:15:38;101592.08;;;7.71;67.51
33265;BME280;31404;53.974;-1.086;2023-02-17T13:25:36;101624.15;;;8.24;68.44
33265;BME280;31404;53.974;-1.086;2023-02-17T13:30:39;101625.14;;;6.96;71.39
33265;BME280;31404;53.974;-1.086;2023-02-17T13:35:36;101616.24;;;6.64;74.24
33265;BME280;31404;53.974;-1.086;2023-02-17T13:40:37;101634.34;;;6.87;73.92
33265;BME280;31404;53.974;-1.086;2023-02-17T13:45:41;101661.82;;;7.18;71.47
33265;BME280;31404;53.974;-1.086;2023-02-17T13:50:41;101672.63;;;7.01;69.45
33265;BME280;31404;53.974;-1.086;2023-02-17T13:55:38;101687.29;;;7.09;73.23
33265;BME280;31404;53.974;-1.086;2023-02-17T14:00:34;101709.97;;;7.68;71.54
33265;BME280;31404;53.974;-1.086;2023-02-17T14:05:39;101705.66;;;8.27;69.78
33265;BME280;31404;53.974;-1.086;2023-02-17T14:10:36;101721.08;;;8.08;69.04
33265;BME280;31404;53.974;-1.086;2023-02-17T14:15:36;101729.15;;;8.13;68.77
33265;BME280;31404;53.974;-1.086;2023-02-17T14:20:36;101732.59;;;7.82;70.96
33265;BME280;31404;53.974;-1.086;2023-02-17T14:25:37;101730.09;;;6.90;74.94
33265;BME280;31404;53.974;-1.086;2023-02-17T14:30:37;101734.02;;;8.18;70.35
33265;BME280;31404;53.974;-1.086;2023-02-17T14:35:36;101742.91;;;7.49;73.86
33265;BME280;31404;53.974;-1.086;2023-02-17T14:40:42;101743.50;;;7.48;73.89
33265;BME280;31404;53.974;-1.086;2023-02-17T14:45:35;101750.05;;;7.52;74.29
33265;BME280;31404;53.974;-1.086;2023-02-17T14:50:36;101748.38;;;7.71;74.39
33265;BME280;31404;53.974;-1.086;2023-02-17T14:55:39;101745.98;;;7.72;71.07
33265;BME280;31404;53.974;-1.086;2023-02-17T15:00:35;101744.00;;;7.52;73.53
33265;BME280;31404;53.974;-1.086;2023-02-17T15:05:35;101739.21;;;7.27;73.15
33265;BME280;31404;53.974;-1.086;2023-02-17T15:10:36;101740.64;;;6.43;76.60
33265;BME280;31404;53.974;-1.086;2023-02-17T15:15:36;101736.48;;;7.24;73.85
33265;BME280;31404;53.974;-1.086;2023-02-17T15:20:41;101766.71;;;7.27;72.75
33265;BME280;31404;53.974;-1.086;2023-02-17T15:25:35;101782.88;;;7.27;74.50
33265;BME280;31404;53.974;-1.086;2023-02-17T15:30:35;101788.22;;;7.91;71.33
33265;BME280;31404;53.974;-1.086;2023-02-17T15:35:38;101807.49;;;8.40;69.72
33265;BME280;31404;53.974;-1.086;2023-02-17T15:40:36;101815.97;;;9.20;67.87
33265;BME280;31404;53.974;-1.086;2023-02-17T15:45:36;101820.61;;;9.34;67.03
33265;BME280;31404;53.974;-1.086;2023-02-17T15:50:35;101831.63;;;9.01;67.00
33265;BME280;31404;53.974;-1.086;2023-02-17T15:55:35;101832.11;;;8.39;68.95
33265;BME280;31404;53.974;-1.086;2023-02-17T16:00:34;101836.12;;;10.12;64.84
33265;BME280;31404;53.974;-1.086;2023-02-17T16:05:35;101856.25;;;10.12;65.26
33265;BME280;31404;53.974;-1.086;2023-02-17T16:10:35;101864.64;;;11.03;63.74
33265;BME280;31404;53.974;-1.086;2023-02-17T16:15:35;101858.44;;;10.31;65.16
33265;BME280;31404;53.974;-1.086;2023-02-17T16:20:35;101855.89;;;9.94;66.56
33265;BME280;31404;53.974;-1.086;2023-02-17T16:25:35;101857.03;;;9.54;67.31
33265;BME280;31404;53.974;-1.086;2023-02-17T16:30:35;101855.86;;;9.03;67.67
33265;BME280;31404;53.974;-1.086;2023-02-17T16:35:36;101854.57;;;9.54;68.19
33265;BME280;31404;53.974;-1.086;2023-02-17T16:40:36;101855.39;;;9.26;68.64
33265;BME280;31404;53.974;-1.086;2023-02-17T16:50:35;101860.90;;;8.06;73.31
33265;BME280;31404;53.974;-1.086;2023-02-17T16:55:37;101867.66;;;7.64;72.41
33265;BME280;31404;53.974;-1.086;2023-02-17T17:00:35;101864.03;;;8.07;71.75
33265;BME280;31404;53.974;-1.086;2023-02-17T17:05:37;101885.09;;;7.04;75.14
33265;BME280;31404;53.974;-1.086;2023-02-17T17:15:36;101908.89;;;5.91;79.63
33265;BME280;31404;53.974;-1.086;2023-02-17T17:20:37;101904.74;;;6.39;78.38
33265;BME280;31404;53.974;-1.086;2023-02-17T17:25:37;101907.21;;;6.42;78.95
33265;BME280;31404;53.974;-1.086;2023-02-17T17:30:37;101906.21;;;6.08;79.98
33265;BME280;31404;53.974;-1.086;2023-02-17T17:35:37;101903.94;;;5.13;85.49
33265;BME280;31404;53.974;-1.086;2023-02-17T17:40:35;101891.04;;;5.49;85.10
33265;BME280;31404;53.974;-1.086;2023-02-17T17:45:35;101882.58;;;6.06;84.75
33265;BME280;31404;53.974;-1.086;2023-02-17T17:50:36;101896.25;;;6.44;84.95
33265;BME280;31404;53.974;-1.086;2023-02-17T17:55:36;101905.74;;;6.73;83.64
33265;BME280;31404;53.974;-1.086;2023-02-17T18:00:34;101924.07;;;6.79;80.24
33265;BME280;31404;53.974;-1.086;2023-02-17T18:05:36;101937.23;;;7.59;77.41
33265;BME280;31404;53.974;-1.086;2023-02-17T18:15:36;101947.03;;;9.19;70.05
33265;BME280;31404;53.974;-1.086;2023-02-17T18:20:35;101956.58;;;9.17;69.93
33265;BME280;31404;53.974;-1.086;2023-02-17T18:25:36;101966.32;;;8.01;73.58
33265;BME280;31404;53.974;-1.086;2023-02-17T18:30:36;101968.78;;;6.74;78.10
33265;BME280;31404;53.974;-1.086;2023-02-17T18:35:37;101957.72;;;6.46;81.34
33265;BME280;31404;53.974;-1.086;2023-02-17T18:40:37;101960.15;;;7.83;77.74
33265;BME280;31404;53.974;-1.086;2023-02-17T18:45:36;101959.95;;;6.99;79.76
33265;BME280;31404;53.974;-1.086;2023-02-17T18:50:35;101964.52;;;6.08;83.74
33265;BME280;31404;53.974;-1.086;2023-02-17T18:55:36;101975.93;;;7.98;74.94
33265;BME280;31404;53.974;-1.086;2023-02-17T19:00:36;101977.62;;;8.43;73.73
33265;BME280;31404;53.974;-1.086;2023-02-17T19:05:35;101981.51;;;9.06;69.68
33265;BME280;31404;53.974;-1.086;2023-02-17T19:10:35;101985.14;;;9.05;70.07
33265;BME280;31404;53.974;-1.086;2023-02-17T19:15:35;101986.30;;;8.75;72.52
33265;BME280;31404;53.974;-1.086;2023-02-17T19:20:36;101997.71;;;9.08;71.17
33265;BME280;31404;53.974;-1.086;2023-02-17T19:25:36;101985.42;;;9.30;70.20
33265;BME280;31404;53.974;-1.086;2023-02-17T19:30:35;101987.19;;;9.81;68.61
33265;BME280;31404;53.974;-1.086;2023-02-17T19:40:36;101970.79;;;11.74;63.58
33265;BME280;31404;53.974;-1.086;2023-02-17T19:45:35;101973.51;;;10.88;64.77
33265;BME280;31404;53.974;-1.086;2023-02-17T19:50:37;101956.95;;;10.46;65.88
33265;BME280;31404;53.974;-1.086;2023-02-17T19:55:37;101947.48;;;10.66;66.33
33265;BME280;31404;53.974;-1.086;2023-02-17T20:00:36;101951.06;;;11.01;64.89
33265;BME280;31404;53.974;-1.086;2023-02-17T20:05:37;101948.42;;;10.90;65.87
33265;BME280;31404;53.974;-1.086;2023-02-17T20:10:39;101940.19;;;11.22;64.90
33265;BME280;31404;53.974;-1.086;2023-02-17T20:15:36;101945.20;;;10.50;65.92
33265;BME280;31404;53.974;-1.086;2023-02-17T20:20:35;101936.12;;;12.22;62.29
33265;BME280;31404;53.974;-1.086;2023-02-17T20:30:35;101937.07;;;12.50;60.54
33265;BME280;31404;53.974;-1.086;2023-02-17T20:35:35;101937.23;;;12.13;61.90
33265;BME280;31404;53.974;-1.086;2023-02-17T20:40:35;101926.99;;;9.16;70.02
33265;BME280;31404;53.974;-1.086;2023-02-17T20:45:36;101920.19;;;8.97;73.03
33265;BME280;31404;53.974;-1.086;2023-02-17T20:50:37;101913.55;;;10.42;68.24
33265;BME280;31404;53.974;-1.086;2023-02-17T20:55:36;101908.81;;;10.88;67.15
33265;BME280;31404;53.974;-1.086;2023-02-17T21:05:37;101921.67;;;10.25;70.62
33265;BME280;31404;53.974;-1.086;2023-02-17T21:10:35;101907.41;;;10.38;72.20
33265;BME280;31404;53.974;-1.086;2023-02-17T21:15:35;101903.24;;;9.32;80.01
33265;BME280;31404;53.974;-1.086;2023-02-17T21:20:35;101916.04;;;8.54;83.99
33265;BME280;31404;53.974;-1.086;2023-02-17T21:25:35;101919.85;;;8.11;89.39
33265;BME280;31404;53.974;-1.086;2023-02-17T21:30:35;101921.02;;;8.61;91.83
33265;BME280;31404;53.974;-1.086;2023-02-17T21:35:36;101913.08;;;9.19;89.98
33265;BME280;31404;53.974;-1.086;2023-02-17T21:40:37;101902.09;;;8.69;95.12
33265;BME280;31404;53.974;-1.086;2023-02-17T21:45:36;101905.51;;;8.30;97.27
33265;BME280;31404;53.974;-1.086;2023-02-17T21:50:36;101897.85;;;8.56;98.10
33265;BME280;31404;53.974;-1.086;2023-02-17T21:55:37;101892.82;;;8.38;99.05
33265;BME280;31404;53.974;-1.086;2023-02-17T22:05:37;101867.63;;;7.99;100.00
33265;BME280;31404;53.974;-1.086;2023-02-17T22:10:36;101853.06;;;8.44;100.00
33265;BME280;31404;53.974;-1.086;2023-02-17T22:15:35;101853.35;;;9.17;98.47
33265;BME280;31404;53.974;-1.086;2023-02-17T22:20:35;101842.45;;;8.96;99.64
33265;BME280;31404;53.974;-1.086;2023-02-17T22:30:34;101812.52;;;9.43;97.19
33265;BME280;31404;53.974;-1.086;2023-02-17T22:35:35;101797.35;;;9.76;93.63
33265;BME280;31404;53.974;-1.086;2023-02-17T22:40:38;101801.26;;;9.15;98.55
33265;BME280;31404;53.974;-1.086;2023-02-17T22:45:35;101779.16;;;8.76;98.59
33265;BME280;31404;53.974;-1.086;2023-02-17T22:50:37;101772.49;;;8.04;100.00
33265;BME280;31404;53.974;-1.086;2023-02-17T22:55:35;101751.35;;;7.25;100.00
33265;BME280;31404;53.974;-1.086;2023-02-17T23:00:37;101726.31;;;8.79;100.00
33265;BME280;31404;53.974;-1.086;2023-02-17T23:05:35;101713.43;;;7.82;100.00
33265;BME280;31404;53.974;-1.086;2023-02-17T23:15:38;101683.85;;;6.51;100.00
33265;BME280;31404;53.974;-1.086;2023-02-17T23:20:37;101662.65;;;7.31;100.00
33265;BME280;31404;53.974;-1.086;2023-02-17T23:25:38;101654.57;;;7.00;100.00
33265;BME280;31404;53.974;-1.086;2023-02-17T23:30:36;101636.83;;;7.93;100.00
33265;BME280;31404;53.974;-1.086;2023-02-17T23:35:38;101638.02;;;6.92;100.00
33265;BME280;31404;53.974;-1.086;2023-02-17T23:40:36;101643.80;;;8.35;100.00
33265;BME280;31404;53.974;-1.086;2023-02-17T23:45:37;101608.91;;;7.40;100.00
33265;BME280;31404;53.974;-1.086;2023-02-17T23:50:35;101645.98;;;8.37;100.00
33265;BME280;31404;53.974;-1.086;2023-02-17T23:55:35;101665.52;;;7.80;100.00
